sensor_id;sensor_type;location;lat;lon;timestamp;temperature;humidity
8711;DHT22;4392;47.400;8.062;2024-03-06T00:02:08;9.00;99.90
8711;DHT22;4392;47.400;8.062;2024-03-06T00:04:34;9.00;99.90
8711;DHT22;4392;47.400;8.062;2024-03-06T00:07:00;8.90;99.90
8711;DHT22;4392;47.400;8.062;2024-03-06T00:09:26;8.90;99.90
8711;DHT22;4392;47.400;8.062;2024-03-06T00:11:53;8.80;99.90
8711;DHT22;4392;47.400;8.062;2024-03-06T00:14:19;8.80;99.90
8711;DHT22;4392;47.400;8.062;2024-03-06T00:16:47;8.90;99.90
8711;DHT22;4392;47.400;8.062;2024-03-06T00:19:13;8.80;99.90
8711;DHT22;4392;47.400;8.062;2024-03-06T00:21:39;8.80;99.90
8711;DHT22;4392;47.400;8.062;2024-03-06T00:24:05;8.80;99.90
8711;DHT22;4392;47.400;8.062;2024-03-06T00:26:33;8.70;99.90
8711;DHT22;4392;47.400;8.062;2024-03-06T00:29:01;9.30;99.90
8711;DHT22;4392;47.400;8.062;2024-03-06T00:31:26;11.10;99.90
8711;DHT22;4392;47.400;8.062;2024-03-06T00:33:54;10.50;99.90
8711;DHT22;4392;47.400;8.062;2024-03-06T00:36:20;9.90;99.90
8711;DHT22;4392;47.400;8.062;2024-03-06T00:38:48;9.60;99.90
8711;DHT22;4392;47.400;8.062;2024-03-06T00:41:15;9.40;99.90
8711;DHT22;4392;47.400;8.062;2024-03-06T00:43:41;9.00;99.90
8711;DHT22;4392;47.400;8.062;2024-03-06T00:46:07;8.90;99.90
8711;DHT22;4392;47.400;8.062;2024-03-06T00:48:33;10.80;99.90
8711;DHT22;4392;47.400;8.062;2024-03-06T00:50:58;10.90;99.90
8711;DHT22;4392;47.400;8.062;2024-03-06T00:53:24;10.30;99.90
8711;DHT22;4392;47.400;8.062;2024-03-06T00:55:50;9.90;99.90
8711;DHT22;4392;47.400;8.062;2024-03-06T00:58:15;9.60;99.90
8711;DHT22;4392;47.400;8.062;2024-03-06T01:00:42;9.40;99.90
8711;DHT22;4392;47.400;8.062;2024-03-06T01:03:08;9.70;99.90
8711;DHT22;4392;47.400;8.062;2024-03-06T01:05:33;11.50;99.90
8711;DHT22;4392;47.400;8.062;2024-03-06T01:07:59;11.10;99.90
8711;DHT22;4392;47.400;8.062;2024-03-06T01:10:25;10.40;99.90
8711;DHT22;4392;47.400;8.062;2024-03-06T01:12:50;9.50;99.90
8711;DHT22;4392;47.400;8.062;2024-03-06T01:15:16;9.30;99.90
8711;DHT22;4392;47.400;8.062;2024-03-06T01:17:42;9.40;99.90
8711;DHT22;4392;47.400;8.062;2024-03-06T01:20:08;9.50;99.90
8711;DHT22;4392;47.400;8.062;2024-03-06T01:22:34;9.40;99.90
8711;DHT22;4392;47.400;8.062;2024-03-06T01:25:02;9.40;99.90
8711;DHT22;4392;47.400;8.062;2024-03-06T01:27:28;9.40;99.90
8711;DHT22;4392;47.400;8.062;2024-03-06T01:29:54;9.40;99.90
8711;DHT22;4392;47.400;8.062;2024-03-06T01:32:19;9.40;99.90
8711;DHT22;4392;47.400;8.062;2024-03-06T01:34:45;9.40;99.90
8711;DHT22;4392;47.400;8.062;2024-03-06T01:37:11;9.40;99.90
8711;DHT22;4392;47.400;8.062;2024-03-06T01:39:36;9.30;99.90
8711;DHT22;4392;47.400;8.062;2024-03-06T01:42:03;9.40;99.90
8711;DHT22;4392;47.400;8.062;2024-03-06T01:44:29;9.30;99.90
8711;DHT22;4392;47.400;8.062;2024-03-06T01:46:54;9.30;99.90
8711;DHT22;4392;47.400;8.062;2024-03-06T01:49:21;9.30;99.90
8711;DHT22;4392;47.400;8.062;2024-03-06T01:51:53;9.30;99.90
8711;DHT22;4392;47.400;8.062;2024-03-06T01:54:19;9.30;99.90
8711;DHT22;4392;47.400;8.062;2024-03-06T01:56:46;9.30;99.90
8711;DHT22;4392;47.400;8.062;2024-03-06T01:59:21;9.60;99.90
8711;DHT22;4392;47.400;8.062;2024-03-06T02:01:47;10.90;99.90
8711;DHT22;4392;47.400;8.062;2024-03-06T02:04:15;10.30;99.90
8711;DHT22;4392;47.400;8.062;2024-03-06T02:06:43;9.90;99.90
8711;DHT22;4392;47.400;8.062;2024-03-06T02:09:09;9.70;99.90
8711;DHT22;4392;47.400;8.062;2024-03-06T02:11:39;9.50;99.90
8711;DHT22;4392;47.400;8.062;2024-03-06T02:14:05;9.50;99.90
8711;DHT22;4392;47.400;8.062;2024-03-06T02:16:35;9.50;99.90
8711;DHT22;4392;47.400;8.062;2024-03-06T02:19:03;9.40;99.90
8711;DHT22;4392;47.400;8.062;2024-03-06T02:21:28;9.40;99.90
8711;DHT22;4392;47.400;8.062;2024-03-06T02:23:59;9.40;99.90
8711;DHT22;4392;47.400;8.062;2024-03-06T02:26:24;9.30;99.90
8711;DHT22;4392;47.400;8.062;2024-03-06T02:28:51;9.30;99.90
8711;DHT22;4392;47.400;8.062;2024-03-06T02:31:17;9.30;99.90
8711;DHT22;4392;47.400;8.062;2024-03-06T02:33:44;9.20;99.90
8711;DHT22;4392;47.400;8.062;2024-03-06T02:36:15;9.20;99.90
8711;DHT22;4392;47.400;8.062;2024-03-06T02:38:42;9.10;99.90
8711;DHT22;4392;47.400;8.062;2024-03-06T02:41:09;9.20;99.90
8711;DHT22;4392;47.400;8.062;2024-03-06T02:43:34;9.20;99.90
8711;DHT22;4392;47.400;8.062;2024-03-06T02:46:00;9.20;99.90
8711;DHT22;4392;47.400;8.062;2024-03-06T02:48:29;9.10;99.90
8711;DHT22;4392;47.400;8.062;2024-03-06T02:50:56;10.60;99.90
8711;DHT22;4392;47.400;8.062;2024-03-06T02:53:22;10.20;99.90
8711;DHT22;4392;47.400;8.062;2024-03-06T02:55:47;11.40;99.90
8711;DHT22;4392;47.400;8.062;2024-03-06T02:58:13;10.80;99.90
8711;DHT22;4392;47.400;8.062;2024-03-06T03:00:42;10.20;99.90
8711;DHT22;4392;47.400;8.062;2024-03-06T03:03:08;9.80;99.90
8711;DHT22;4392;47.400;8.062;2024-03-06T03:05:35;9.60;99.90
8711;DHT22;4392;47.400;8.062;2024-03-06T03:08:01;9.40;99.90
8711;DHT22;4392;47.400;8.062;2024-03-06T03:10:26;9.30;99.90
8711;DHT22;4392;47.400;8.062;2024-03-06T03:12:55;9.20;99.90
8711;DHT22;4392;47.400;8.062;2024-03-06T03:15:21;9.10;99.90
8711;DHT22;4392;47.400;8.062;2024-03-06T03:17:46;9.10;99.90
8711;DHT22;4392;47.400;8.062;2024-03-06T03:20:12;9.00;99.90
8711;DHT22;4392;47.400;8.062;2024-03-06T03:22:41;9.00;99.90
8711;DHT22;4392;47.400;8.062;2024-03-06T03:25:08;9.00;99.90
8711;DHT22;4392;47.400;8.062;2024-03-06T03:27:36;9.00;99.90
8711;DHT22;4392;47.400;8.062;2024-03-06T03:30:02;8.90;99.90
8711;DHT22;4392;47.400;8.062;2024-03-06T03:32:28;8.90;99.90
8711;DHT22;4392;47.400;8.062;2024-03-06T03:34:54;8.90;99.90
8711;DHT22;4392;47.400;8.062;2024-03-06T03:37:19;8.90;99.90
8711;DHT22;4392;47.400;8.062;2024-03-06T03:39:47;8.90;99.90
8711;DHT22;4392;47.400;8.062;2024-03-06T03:42:13;8.80;99.90
8711;DHT22;4392;47.400;8.062;2024-03-06T03:44:38;8.80;99.90
8711;DHT22;4392;47.400;8.062;2024-03-06T03:47:05;8.80;99.90
8711;DHT22;4392;47.400;8.062;2024-03-06T03:49:33;8.70;99.90
8711;DHT22;4392;47.400;8.062;2024-03-06T03:51:59;8.80;99.90
8711;DHT22;4392;47.400;8.062;2024-03-06T03:54:24;8.80;99.90
8711;DHT22;4392;47.400;8.062;2024-03-06T03:56:50;8.80;99.90
8711;DHT22;4392;47.400;8.062;2024-03-06T03:59:16;10.40;99.90
8711;DHT22;4392;47.400;8.062;2024-03-06T04:01:45;10.40;99.90
8711;DHT22;4392;47.400;8.062;2024-03-06T04:04:11;9.80;99.90
8711;DHT22;4392;47.400;8.062;2024-03-06T04:06:36;9.40;99.90
8711;DHT22;4392;47.400;8.062;2024-03-06T04:09:02;9.30;99.90
8711;DHT22;4392;47.400;8.062;2024-03-06T04:11:27;9.20;99.90
8711;DHT22;4392;47.400;8.062;2024-03-06T04:13:53;8.80;99.90
8711;DHT22;4392;47.400;8.062;2024-03-06T04:16:19;8.80;99.90
8711;DHT22;4392;47.400;8.062;2024-03-06T04:18:44;8.60;99.90
8711;DHT22;4392;47.400;8.062;2024-03-06T04:21:13;8.70;99.90
8711;DHT22;4392;47.400;8.062;2024-03-06T04:23:40;8.80;99.90
8711;DHT22;4392;47.400;8.062;2024-03-06T04:26:05;8.90;99.90
8711;DHT22;4392;47.400;8.062;2024-03-06T04:28:31;9.00;99.90
8711;DHT22;4392;47.400;8.062;2024-03-06T04:30:57;9.00;99.90
8711;DHT22;4392;47.400;8.062;2024-03-06T04:33:23;9.00;99.90
8711;DHT22;4392;47.400;8.062;2024-03-06T04:35:48;9.00;99.90
8711;DHT22;4392;47.400;8.062;2024-03-06T04:38:14;8.90;99.90
8711;DHT22;4392;47.400;8.062;2024-03-06T04:40:43;9.00;99.90
8711;DHT22;4392;47.400;8.062;2024-03-06T04:43:08;8.90;99.90
8711;DHT22;4392;47.400;8.062;2024-03-06T04:45:34;8.90;99.90
8711;DHT22;4392;47.400;8.062;2024-03-06T04:48:00;8.80;99.90
8711;DHT22;4392;47.400;8.062;2024-03-06T04:50:25;8.90;99.90
8711;DHT22;4392;47.400;8.062;2024-03-06T04:52:53;8.90;99.90
8711;DHT22;4392;47.400;8.062;2024-03-06T04:55:19;8.90;99.90
8711;DHT22;4392;47.400;8.062;2024-03-06T04:57:48;8.90;99.90
8711;DHT22;4392;47.400;8.062;2024-03-06T05:00:14;8.80;99.90
8711;DHT22;4392;47.400;8.062;2024-03-06T05:02:40;8.70;99.90
8711;DHT22;4392;47.400;8.062;2024-03-06T05:05:07;8.70;99.90
8711;DHT22;4392;47.400;8.062;2024-03-06T05:07:34;8.70;99.90
8711;DHT22;4392;47.400;8.062;2024-03-06T05:10:00;8.70;99.90
8711;DHT22;4392;47.400;8.062;2024-03-06T05:12:26;8.70;99.90
8711;DHT22;4392;47.400;8.062;2024-03-06T05:14:53;8.70;99.90
8711;DHT22;4392;47.400;8.062;2024-03-06T05:17:19;8.70;99.90
8711;DHT22;4392;47.400;8.062;2024-03-06T05:19:45;8.70;99.90
8711;DHT22;4392;47.400;8.062;2024-03-06T05:22:13;9.90;99.90
8711;DHT22;4392;47.400;8.062;2024-03-06T05:24:38;9.90;99.90
8711;DHT22;4392;47.400;8.062;2024-03-06T05:27:04;9.20;99.90
8711;DHT22;4392;47.400;8.062;2024-03-06T05:29:30;8.90;99.90
8711;DHT22;4392;47.400;8.062;2024-03-06T05:31:55;8.80;99.90
8711;DHT22;4392;47.400;8.062;2024-03-06T05:34:22;8.70;99.90
8711;DHT22;4392;47.400;8.062;2024-03-06T05:36:50;8.70;99.90
8711;DHT22;4392;47.400;8.062;2024-03-06T05:39:16;8.60;99.90
8711;DHT22;4392;47.400;8.062;2024-03-06T05:41:43;8.60;99.90
8711;DHT22;4392;47.400;8.062;2024-03-06T05:44:09;8.50;99.90
8711;DHT22;4392;47.400;8.062;2024-03-06T05:46:35;8.40;99.90
8711;DHT22;4392;47.400;8.062;2024-03-06T05:49:02;8.30;99.90
8711;DHT22;4392;47.400;8.062;2024-03-06T05:51:28;8.30;99.90
8711;DHT22;4392;47.400;8.062;2024-03-06T05:53:54;8.30;99.90
8711;DHT22;4392;47.400;8.062;2024-03-06T05:56:20;8.30;99.90
8711;DHT22;4392;47.400;8.062;2024-03-06T05:58:46;8.20;99.90
8711;DHT22;4392;47.400;8.062;2024-03-06T06:01:18;8.20;99.90
8711;DHT22;4392;47.400;8.062;2024-03-06T06:03:47;8.10;99.90
8711;DHT22;4392;47.400;8.062;2024-03-06T06:06:17;8.20;99.90
8711;DHT22;4392;47.400;8.062;2024-03-06T06:08:43;8.30;99.90
8711;DHT22;4392;47.400;8.062;2024-03-06T06:11:09;8.40;99.90
8711;DHT22;4392;47.400;8.062;2024-03-06T06:13:35;8.40;99.90
8711;DHT22;4392;47.400;8.062;2024-03-06T06:16:01;8.40;99.90
8711;DHT22;4392;47.400;8.062;2024-03-06T06:18:29;8.50;99.90
8711;DHT22;4392;47.400;8.062;2024-03-06T06:20:57;8.40;99.90
8711;DHT22;4392;47.400;8.062;2024-03-06T06:23:25;8.40;99.90
8711;DHT22;4392;47.400;8.062;2024-03-06T06:25:51;8.30;99.90
8711;DHT22;4392;47.400;8.062;2024-03-06T06:28:17;8.30;99.90
8711;DHT22;4392;47.400;8.062;2024-03-06T06:30:45;8.30;99.90
8711;DHT22;4392;47.400;8.062;2024-03-06T06:33:10;8.30;99.90
8711;DHT22;4392;47.400;8.062;2024-03-06T06:35:36;8.20;99.90
8711;DHT22;4392;47.400;8.062;2024-03-06T06:38:02;8.20;99.90
8711;DHT22;4392;47.400;8.062;2024-03-06T06:40:28;8.10;99.90
8711;DHT22;4392;47.400;8.062;2024-03-06T06:42:56;8.20;99.90
8711;DHT22;4392;47.400;8.062;2024-03-06T06:45:22;8.20;99.90
8711;DHT22;4392;47.400;8.062;2024-03-06T06:47:49;8.20;99.90
8711;DHT22;4392;47.400;8.062;2024-03-06T06:50:15;8.30;99.90
8711;DHT22;4392;47.400;8.062;2024-03-06T06:52:41;8.30;99.90
8711;DHT22;4392;47.400;8.062;2024-03-06T06:55:07;8.30;99.90
8711;DHT22;4392;47.400;8.062;2024-03-06T06:57:37;8.20;99.90
8711;DHT22;4392;47.400;8.062;2024-03-06T07:00:03;8.20;99.90
8711;DHT22;4392;47.400;8.062;2024-03-06T07:02:42;8.20;99.90
8711;DHT22;4392;47.400;8.062;2024-03-06T07:05:09;8.10;99.90
8711;DHT22;4392;47.400;8.062;2024-03-06T07:07:35;8.10;99.90
8711;DHT22;4392;47.400;8.062;2024-03-06T07:10:02;8.00;99.90
8711;DHT22;4392;47.400;8.062;2024-03-06T07:12:29;8.10;99.90
8711;DHT22;4392;47.400;8.062;2024-03-06T07:14:54;8.10;99.90
8711;DHT22;4392;47.400;8.062;2024-03-06T07:17:20;8.10;99.90
8711;DHT22;4392;47.400;8.062;2024-03-06T07:19:45;8.10;99.90
8711;DHT22;4392;47.400;8.062;2024-03-06T07:22:11;8.20;99.90
8711;DHT22;4392;47.400;8.062;2024-03-06T07:24:37;8.20;99.90
8711;DHT22;4392;47.400;8.062;2024-03-06T07:27:05;8.20;99.90
8711;DHT22;4392;47.400;8.062;2024-03-06T07:29:30;8.20;99.90
8711;DHT22;4392;47.400;8.062;2024-03-06T07:31:56;8.00;99.90
8711;DHT22;4392;47.400;8.062;2024-03-06T07:34:22;8.20;99.90
8711;DHT22;4392;47.400;8.062;2024-03-06T07:36:48;8.10;99.90
8711;DHT22;4392;47.400;8.062;2024-03-06T07:39:18;8.10;99.90
8711;DHT22;4392;47.400;8.062;2024-03-06T07:41:44;8.10;99.90
8711;DHT22;4392;47.400;8.062;2024-03-06T07:44:10;8.10;99.90
8711;DHT22;4392;47.400;8.062;2024-03-06T07:46:35;8.20;99.90
8711;DHT22;4392;47.400;8.062;2024-03-06T07:49:01;8.10;99.90
8711;DHT22;4392;47.400;8.062;2024-03-06T07:51:28;8.00;99.90
8711;DHT22;4392;47.400;8.062;2024-03-06T07:53:55;8.10;99.90
8711;DHT22;4392;47.400;8.062;2024-03-06T07:56:21;8.10;99.90
8711;DHT22;4392;47.400;8.062;2024-03-06T07:58:47;8.10;99.90
8711;DHT22;4392;47.400;8.062;2024-03-06T08:01:12;8.20;99.90
8711;DHT22;4392;47.400;8.062;2024-03-06T08:03:41;8.10;99.90
8711;DHT22;4392;47.400;8.062;2024-03-06T08:06:08;8.20;99.90
8711;DHT22;4392;47.400;8.062;2024-03-06T08:08:34;8.20;99.90
8711;DHT22;4392;47.400;8.062;2024-03-06T08:11:00;8.30;99.90
8711;DHT22;4392;47.400;8.062;2024-03-06T08:13:26;8.30;99.90
8711;DHT22;4392;47.400;8.062;2024-03-06T08:15:52;8.30;99.90
8711;DHT22;4392;47.400;8.062;2024-03-06T08:18:18;8.20;99.90
8711;DHT22;4392;47.400;8.062;2024-03-06T08:20:44;8.20;99.90
8711;DHT22;4392;47.400;8.062;2024-03-06T08:23:09;8.20;99.90
8711;DHT22;4392;47.400;8.062;2024-03-06T08:25:35;8.10;99.90
8711;DHT22;4392;47.400;8.062;2024-03-06T08:28:01;8.20;99.90
8711;DHT22;4392;47.400;8.062;2024-03-06T08:30:28;8.30;99.90
8711;DHT22;4392;47.400;8.062;2024-03-06T08:32:56;8.30;99.90
8711;DHT22;4392;47.400;8.062;2024-03-06T08:35:21;8.30;99.90
8711;DHT22;4392;47.400;8.062;2024-03-06T08:37:51;8.40;99.90
8711;DHT22;4392;47.400;8.062;2024-03-06T08:40:17;8.50;99.90
8711;DHT22;4392;47.400;8.062;2024-03-06T08:42:43;8.50;99.90
8711;DHT22;4392;47.400;8.062;2024-03-06T08:45:09;8.40;99.90
8711;DHT22;4392;47.400;8.062;2024-03-06T08:47:35;8.40;99.90
8711;DHT22;4392;47.400;8.062;2024-03-06T08:50:02;8.20;99.90
8711;DHT22;4392;47.400;8.062;2024-03-06T08:52:28;8.10;99.90
8711;DHT22;4392;47.400;8.062;2024-03-06T08:54:54;8.30;99.90
8711;DHT22;4392;47.400;8.062;2024-03-06T08:57:19;8.30;99.90
8711;DHT22;4392;47.400;8.062;2024-03-06T08:59:49;8.40;99.90
8711;DHT22;4392;47.400;8.062;2024-03-06T09:02:19;8.40;99.90
8711;DHT22;4392;47.400;8.062;2024-03-06T09:04:46;8.40;99.90
8711;DHT22;4392;47.400;8.062;2024-03-06T09:07:12;8.40;99.90
8711;DHT22;4392;47.400;8.062;2024-03-06T09:09:41;8.50;99.90
8711;DHT22;4392;47.400;8.062;2024-03-06T09:12:08;8.50;99.90
8711;DHT22;4392;47.400;8.062;2024-03-06T09:14:38;8.60;99.90
8711;DHT22;4392;47.400;8.062;2024-03-06T09:17:04;8.30;99.90
8711;DHT22;4392;47.400;8.062;2024-03-06T09:19:30;8.40;99.90
8711;DHT22;4392;47.400;8.062;2024-03-06T09:21:56;8.60;99.90
8711;DHT22;4392;47.400;8.062;2024-03-06T09:24:23;8.10;99.90
8711;DHT22;4392;47.400;8.062;2024-03-06T09:26:50;8.00;99.90
8711;DHT22;4392;47.400;8.062;2024-03-06T09:29:17;7.80;99.90
8711;DHT22;4392;47.400;8.062;2024-03-06T09:31:43;7.60;99.90
8711;DHT22;4392;47.400;8.062;2024-03-06T09:34:08;8.00;99.90
8711;DHT22;4392;47.400;8.062;2024-03-06T09:36:48;8.30;99.90
8711;DHT22;4392;47.400;8.062;2024-03-06T09:39:16;8.50;99.90
8711;DHT22;4392;47.400;8.062;2024-03-06T09:41:46;8.60;99.90
8711;DHT22;4392;47.400;8.062;2024-03-06T09:44:12;8.60;99.90
8711;DHT22;4392;47.400;8.062;2024-03-06T09:46:44;8.70;99.90
8711;DHT22;4392;47.400;8.062;2024-03-06T09:49:17;8.70;99.90
8711;DHT22;4392;47.400;8.062;2024-03-06T09:51:47;8.70;99.90
8711;DHT22;4392;47.400;8.062;2024-03-06T09:54:16;8.70;99.90
8711;DHT22;4392;47.400;8.062;2024-03-06T09:56:45;8.40;99.90
8711;DHT22;4392;47.400;8.062;2024-03-06T09:59:12;8.30;99.90
8711;DHT22;4392;47.400;8.062;2024-03-06T10:01:43;8.50;99.90
8711;DHT22;4392;47.400;8.062;2024-03-06T10:04:23;8.60;99.90
8711;DHT22;4392;47.400;8.062;2024-03-06T10:06:56;8.70;99.90
8711;DHT22;4392;47.400;8.062;2024-03-06T10:09:23;8.70;99.90
8711;DHT22;4392;47.400;8.062;2024-03-06T10:11:49;8.60;99.90
8711;DHT22;4392;47.400;8.062;2024-03-06T10:14:15;8.60;99.90
8711;DHT22;4392;47.400;8.062;2024-03-06T10:17:00;8.80;99.90
8711;DHT22;4392;47.400;8.062;2024-03-06T10:19:27;8.90;99.90
8711;DHT22;4392;47.400;8.062;2024-03-06T10:21:54;9.00;99.90
8711;DHT22;4392;47.400;8.062;2024-03-06T10:24:29;9.00;99.90
8711;DHT22;4392;47.400;8.062;2024-03-06T10:26:55;9.00;99.90
8711;DHT22;4392;47.400;8.062;2024-03-06T10:29:23;9.00;99.90
8711;DHT22;4392;47.400;8.062;2024-03-06T10:31:57;9.00;99.90
8711;DHT22;4392;47.400;8.062;2024-03-06T10:34:24;9.00;99.90
8711;DHT22;4392;47.400;8.062;2024-03-06T10:36:55;9.00;99.90
8711;DHT22;4392;47.400;8.062;2024-03-06T10:39:22;9.00;99.90
8711;DHT22;4392;47.400;8.062;2024-03-06T10:41:55;9.00;99.90
8711;DHT22;4392;47.400;8.062;2024-03-06T10:44:23;9.10;99.90
8711;DHT22;4392;47.400;8.062;2024-03-06T10:49:23;9.10;99.90
8711;DHT22;4392;47.400;8.062;2024-03-06T10:51:51;9.10;99.90
8711;DHT22;4392;47.400;8.062;2024-03-06T10:54:17;9.20;99.90
8711;DHT22;4392;47.400;8.062;2024-03-06T10:56:44;9.10;99.90
8711;DHT22;4392;47.400;8.062;2024-03-06T10:59:13;9.10;99.90
8711;DHT22;4392;47.400;8.062;2024-03-06T11:01:39;9.20;99.90
8711;DHT22;4392;47.400;8.062;2024-03-06T11:04:06;9.10;99.90
8711;DHT22;4392;47.400;8.062;2024-03-06T11:06:34;9.20;99.90
8711;DHT22;4392;47.400;8.062;2024-03-06T11:09:01;9.30;99.90
8711;DHT22;4392;47.400;8.062;2024-03-06T11:11:27;9.30;99.90
8711;DHT22;4392;47.400;8.062;2024-03-06T11:14:01;9.30;99.90
8711;DHT22;4392;47.400;8.062;2024-03-06T11:16:32;9.30;99.90
8711;DHT22;4392;47.400;8.062;2024-03-06T11:19:17;9.40;99.90
8711;DHT22;4392;47.400;8.062;2024-03-06T11:21:46;9.40;99.90
8711;DHT22;4392;47.400;8.062;2024-03-06T11:24:49;9.40;99.90
8711;DHT22;4392;47.400;8.062;2024-03-06T11:27:07;9.40;99.90
8711;DHT22;4392;47.400;8.062;2024-03-06T11:32:36;9.60;99.90
8711;DHT22;4392;47.400;8.062;2024-03-06T11:35:03;9.60;99.90
8711;DHT22;4392;47.400;8.062;2024-03-06T11:37:33;9.70;99.90
8711;DHT22;4392;47.400;8.062;2024-03-06T11:40:00;9.60;99.90
8711;DHT22;4392;47.400;8.062;2024-03-06T11:42:34;9.60;99.90
8711;DHT22;4392;47.400;8.062;2024-03-06T11:45:13;9.60;99.90
8711;DHT22;4392;47.400;8.062;2024-03-06T11:47:58;9.70;99.90
8711;DHT22;4392;47.400;8.062;2024-03-06T11:50:26;9.80;99.90
8711;DHT22;4392;47.400;8.062;2024-03-06T11:52:52;9.70;99.90
8711;DHT22;4392;47.400;8.062;2024-03-06T11:55:21;9.70;99.90
8711;DHT22;4392;47.400;8.062;2024-03-06T11:57:47;9.70;99.90
8711;DHT22;4392;47.400;8.062;2024-03-06T12:00:13;9.70;99.90
8711;DHT22;4392;47.400;8.062;2024-03-06T12:02:40;9.70;99.90
8711;DHT22;4392;47.400;8.062;2024-03-06T12:05:07;9.70;99.90
8711;DHT22;4392;47.400;8.062;2024-03-06T12:07:46;9.70;99.90
8711;DHT22;4392;47.400;8.062;2024-03-06T12:10:11;9.80;99.90
8711;DHT22;4392;47.400;8.062;2024-03-06T12:12:37;9.90;99.90
8711;DHT22;4392;47.400;8.062;2024-03-06T12:15:04;9.80;99.90
8711;DHT22;4392;47.400;8.062;2024-03-06T12:17:31;9.90;99.90
8711;DHT22;4392;47.400;8.062;2024-03-06T12:19:57;9.90;99.90
8711;DHT22;4392;47.400;8.062;2024-03-06T12:22:26;9.90;99.90
8711;DHT22;4392;47.400;8.062;2024-03-06T12:24:59;10.00;99.90
8711;DHT22;4392;47.400;8.062;2024-03-06T12:27:25;10.00;99.90
8711;DHT22;4392;47.400;8.062;2024-03-06T12:29:53;9.90;99.90
8711;DHT22;4392;47.400;8.062;2024-03-06T12:32:19;10.00;99.90
8711;DHT22;4392;47.400;8.062;2024-03-06T12:34:56;10.00;99.90
8711;DHT22;4392;47.400;8.062;2024-03-06T12:37:31;9.90;99.90
8711;DHT22;4392;47.400;8.062;2024-03-06T12:39:57;9.90;99.90
8711;DHT22;4392;47.400;8.062;2024-03-06T12:42:23;9.90;99.90
8711;DHT22;4392;47.400;8.062;2024-03-06T12:44:50;9.90;99.90
8711;DHT22;4392;47.400;8.062;2024-03-06T12:47:16;9.80;99.90
8711;DHT22;4392;47.400;8.062;2024-03-06T12:49:41;9.60;99.90
8711;DHT22;4392;47.400;8.062;2024-03-06T12:52:07;9.70;99.90
8711;DHT22;4392;47.400;8.062;2024-03-06T12:54:32;9.90;99.90
8711;DHT22;4392;47.400;8.062;2024-03-06T12:56:58;9.90;99.90
8711;DHT22;4392;47.400;8.062;2024-03-06T12:59:24;10.00;99.90
8711;DHT22;4392;47.400;8.062;2024-03-06T13:01:49;10.00;99.90
8711;DHT22;4392;47.400;8.062;2024-03-06T13:04:16;9.90;99.90
8711;DHT22;4392;47.400;8.062;2024-03-06T13:06:41;10.70;99.90
8711;DHT22;4392;47.400;8.062;2024-03-06T13:09:07;11.70;99.90
8711;DHT22;4392;47.400;8.062;2024-03-06T13:11:32;11.20;99.90
8711;DHT22;4392;47.400;8.062;2024-03-06T13:13:58;10.80;99.90
8711;DHT22;4392;47.400;8.062;2024-03-06T13:16:26;10.20;99.90
8711;DHT22;4392;47.400;8.062;2024-03-06T13:18:54;9.80;99.90
8711;DHT22;4392;47.400;8.062;2024-03-06T13:21:22;9.70;99.90
8711;DHT22;4392;47.400;8.062;2024-03-06T13:23:48;9.60;99.90
8711;DHT22;4392;47.400;8.062;2024-03-06T13:26:14;9.50;99.90
8711;DHT22;4392;47.400;8.062;2024-03-06T13:28:40;9.80;99.90
8711;DHT22;4392;47.400;8.062;2024-03-06T13:31:06;9.90;99.90
8711;DHT22;4392;47.400;8.062;2024-03-06T13:33:34;9.50;99.90
8711;DHT22;4392;47.400;8.062;2024-03-06T13:36:00;9.50;99.90
8711;DHT22;4392;47.400;8.062;2024-03-06T13:38:26;9.70;99.90
8711;DHT22;4392;47.400;8.062;2024-03-06T13:40:51;9.70;99.90
8711;DHT22;4392;47.400;8.062;2024-03-06T13:43:17;9.80;99.90
8711;DHT22;4392;47.400;8.062;2024-03-06T13:45:52;9.90;99.90
8711;DHT22;4392;47.400;8.062;2024-03-06T13:48:18;10.00;99.90
8711;DHT22;4392;47.400;8.062;2024-03-06T13:50:44;10.10;99.90
8711;DHT22;4392;47.400;8.062;2024-03-06T13:53:12;10.10;99.90
8711;DHT22;4392;47.400;8.062;2024-03-06T13:55:38;10.10;99.90
8711;DHT22;4392;47.400;8.062;2024-03-06T13:58:07;10.00;99.90
8711;DHT22;4392;47.400;8.062;2024-03-06T14:00:33;9.90;99.90
8711;DHT22;4392;47.400;8.062;2024-03-06T14:03:00;9.60;99.90
8711;DHT22;4392;47.400;8.062;2024-03-06T14:05:26;9.40;99.90
8711;DHT22;4392;47.400;8.062;2024-03-06T14:07:52;10.90;99.90
8711;DHT22;4392;47.400;8.062;2024-03-06T14:10:18;10.60;99.90
8711;DHT22;4392;47.400;8.062;2024-03-06T14:12:47;10.30;99.90
8711;DHT22;4392;47.400;8.062;2024-03-06T14:15:17;10.20;99.90
8711;DHT22;4392;47.400;8.062;2024-03-06T14:17:44;10.10;99.90
8711;DHT22;4392;47.400;8.062;2024-03-06T14:20:12;10.00;99.90
8711;DHT22;4392;47.400;8.062;2024-03-06T14:22:43;10.00;99.90
8711;DHT22;4392;47.400;8.062;2024-03-06T14:25:09;9.90;99.90
8711;DHT22;4392;47.400;8.062;2024-03-06T14:27:36;9.90;99.90
8711;DHT22;4392;47.400;8.062;2024-03-06T14:30:03;9.90;99.90
8711;DHT22;4392;47.400;8.062;2024-03-06T14:32:29;9.90;99.90
8711;DHT22;4392;47.400;8.062;2024-03-06T14:34:54;9.90;99.90
8711;DHT22;4392;47.400;8.062;2024-03-06T14:37:20;9.80;99.90
8711;DHT22;4392;47.400;8.062;2024-03-06T14:39:46;9.80;99.90
8711;DHT22;4392;47.400;8.062;2024-03-06T14:42:12;9.70;99.90
8711;DHT22;4392;47.400;8.062;2024-03-06T14:44:37;9.70;99.90
8711;DHT22;4392;47.400;8.062;2024-03-06T14:47:03;11.00;99.90
8711;DHT22;4392;47.400;8.062;2024-03-06T14:49:31;11.00;99.90
8711;DHT22;4392;47.400;8.062;2024-03-06T14:51:57;10.60;99.90
8711;DHT22;4392;47.400;8.062;2024-03-06T14:54:22;10.30;99.90
8711;DHT22;4392;47.400;8.062;2024-03-06T14:56:52;10.10;99.90
8711;DHT22;4392;47.400;8.062;2024-03-06T14:59:18;9.90;99.90
8711;DHT22;4392;47.400;8.062;2024-03-06T15:01:44;9.90;99.90
8711;DHT22;4392;47.400;8.062;2024-03-06T15:04:10;9.80;99.90
8711;DHT22;4392;47.400;8.062;2024-03-06T15:06:39;9.60;99.90
8711;DHT22;4392;47.400;8.062;2024-03-06T15:09:05;9.50;99.90
8711;DHT22;4392;47.400;8.062;2024-03-06T15:11:31;9.60;99.90
8711;DHT22;4392;47.400;8.062;2024-03-06T15:13:59;9.50;99.90
8711;DHT22;4392;47.400;8.062;2024-03-06T15:16:25;9.50;99.90
8711;DHT22;4392;47.400;8.062;2024-03-06T15:18:51;9.50;99.90
8711;DHT22;4392;47.400;8.062;2024-03-06T15:21:19;9.50;99.90
8711;DHT22;4392;47.400;8.062;2024-03-06T15:23:45;9.50;99.90
8711;DHT22;4392;47.400;8.062;2024-03-06T15:26:11;10.60;99.90
8711;DHT22;4392;47.400;8.062;2024-03-06T15:28:37;11.20;99.90
8711;DHT22;4392;47.400;8.062;2024-03-06T15:31:02;10.70;99.90
8711;DHT22;4392;47.400;8.062;2024-03-06T15:33:31;10.40;99.90
8711;DHT22;4392;47.400;8.062;2024-03-06T15:35:57;10.20;99.90
8711;DHT22;4392;47.400;8.062;2024-03-06T15:38:25;11.30;99.90
8711;DHT22;4392;47.400;8.062;2024-03-06T15:40:52;11.10;99.90
8711;DHT22;4392;47.400;8.062;2024-03-06T15:43:18;10.70;99.90
8711;DHT22;4392;47.400;8.062;2024-03-06T15:45:43;10.50;99.90
8711;DHT22;4392;47.400;8.062;2024-03-06T15:48:09;10.90;99.90
8711;DHT22;4392;47.400;8.062;2024-03-06T15:50:43;11.70;99.90
8711;DHT22;4392;47.400;8.062;2024-03-06T15:53:09;11.20;99.90
8711;DHT22;4392;47.400;8.062;2024-03-06T15:55:35;10.70;99.90
8711;DHT22;4392;47.400;8.062;2024-03-06T15:58:02;10.40;99.90
8711;DHT22;4392;47.400;8.062;2024-03-06T16:00:28;10.30;99.90
8711;DHT22;4392;47.400;8.062;2024-03-06T16:02:54;10.20;99.90
8711;DHT22;4392;47.400;8.062;2024-03-06T16:05:22;11.10;99.90
8711;DHT22;4392;47.400;8.062;2024-03-06T16:07:47;11.10;99.90
8711;DHT22;4392;47.400;8.062;2024-03-06T16:10:13;10.80;99.90
8711;DHT22;4392;47.400;8.062;2024-03-06T16:12:38;10.70;99.90
8711;DHT22;4392;47.400;8.062;2024-03-06T16:15:05;11.80;99.90
8711;DHT22;4392;47.400;8.062;2024-03-06T16:17:31;12.00;99.90
8711;DHT22;4392;47.400;8.062;2024-03-06T16:19:59;11.30;99.90